createdAt,value
2022-09-23T00:01:00.035Z,5.53
2022-09-23T00:02:01.618Z,5.75
2022-09-23T00:03:03.393Z,5.28
2022-09-23T00:04:04.797Z,5.28
2022-09-23T00:05:07.405Z,6.20
2022-09-23T00:06:10.334Z,5.60
2022-09-23T00:07:11.768Z,5.78
2022-09-23T00:08:13.167Z,5.70
2022-09-23T00:09:14.589Z,5.95
2022-09-23T00:10:16.006Z,5.53
2022-09-23T00:11:19.734Z,6.03
2022-09-23T00:12:22.529Z,5.35
2022-09-23T00:13:24.853Z,5.63
2022-09-23T00:14:26.840Z,6.05
2022-09-23T00:15:28.247Z,5.35
2022-09-23T00:16:32.793Z,5.82
2022-09-23T00:17:34.342Z,5.80
2022-09-23T00:18:35.839Z,6.28
2022-09-23T00:19:38.582Z,6.10
2022-09-23T00:20:40.008Z,5.78
2022-09-23T00:21:41.397Z,5.43
2022-09-23T00:22:42.867Z,6.40
2022-09-23T00:23:44.361Z,5.53
2022-09-23T00:24:45.743Z,5.82
2022-09-23T00:25:55.827Z,6.25
2022-09-23T00:26:57.213Z,6.10
2022-09-23T00:27:59.974Z,5.63
2022-09-23T00:29:01.420Z,6.07
2022-09-23T00:30:04.669Z,5.88
2022-09-23T00:31:08.196Z,5.72
2022-09-23T00:32:09.696Z,5.95
2022-09-23T00:33:11.155Z,6.13
2022-09-23T00:34:12.574Z,6.05
2022-09-23T00:35:14.018Z,5.75
2022-09-23T00:36:16.218Z,6.20
2022-09-23T00:37:17.650Z,5.55
2022-09-23T00:38:19.058Z,6.07
2022-09-23T00:39:20.466Z,6.72
2022-09-23T00:40:21.928Z,6.50
2022-09-23T00:41:23.972Z,7.03
2022-09-23T00:42:25.371Z,5.93
2022-09-23T00:43:39.531Z,5.97
2022-09-23T00:44:44.679Z,6.38
2022-09-23T00:45:49.415Z,6.40
2022-09-23T00:46:50.878Z,6.45
2022-09-23T00:47:54.867Z,6.68
2022-09-23T00:49:00.210Z,6.28
2022-09-23T00:50:05.770Z,6.32
2022-09-23T00:51:11.420Z,6.18
2022-09-23T00:52:16.930Z,6.53
2022-09-23T00:53:22.220Z,6.50
2022-09-23T00:54:26.124Z,7.00
2022-09-23T00:55:33.005Z,6.53
2022-09-23T00:56:35.548Z,6.70
2022-09-23T00:57:39.908Z,6.57
2022-09-23T00:58:45.495Z,6.25
2022-09-23T00:59:48.875Z,6.43
2022-09-23T01:00:50.708Z,6.18
2022-09-23T01:01:54.214Z,6.78
2022-09-23T01:02:55.620Z,6.35
2022-09-23T01:03:57.560Z,6.95
2022-09-23T01:05:00.860Z,6.75
2022-09-23T01:06:02.303Z,6.65
2022-09-23T01:07:04.019Z,6.45
2022-09-23T01:08:08.235Z,6.65
2022-09-23T01:09:09.735Z,5.88
2022-09-23T01:10:14.356Z,6.55
2022-09-23T01:11:30.023Z,6.50
2022-09-23T01:12:56.557Z,7.03
2022-09-23T01:14:14.167Z,6.15
2022-09-23T01:15:19.448Z,6.15
2022-09-23T01:16:29.997Z,6.95
2022-09-23T01:17:37.593Z,6.18
2022-09-23T01:18:46.475Z,7.32
2022-09-23T01:20:08.893Z,6.75
2022-09-23T01:21:23.170Z,6.45
2022-09-23T01:22:31.155Z,6.63
2022-09-23T01:24:07.777Z,6.38
2022-09-23T01:25:27.757Z,6.53
2022-09-23T01:26:48.397Z,6.28
2022-09-23T01:28:08.122Z,6.30
2022-09-23T01:29:34.089Z,5.93
2022-09-23T01:30:47.297Z,6.60
2022-09-23T01:31:57.198Z,6.07
2022-09-23T01:33:07.887Z,7.00
2022-09-23T01:34:13.140Z,6.57
2022-09-23T01:35:24.549Z,6.70
2022-09-23T01:36:35.822Z,6.70
2022-09-23T01:37:50.768Z,6.53
2022-09-23T01:38:59.196Z,6.47
2022-09-23T01:40:06.848Z,6.40
2022-09-23T01:41:20.588Z,6.45
2022-09-23T01:42:29.401Z,6.53
2022-09-23T01:43:37.791Z,6.82
2022-09-23T01:44:46.227Z,6.65
2022-09-23T01:45:54.121Z,6.45
2022-09-23T01:46:58.166Z,6.90
2022-09-23T01:48:06.617Z,6.78
2022-09-23T01:49:14.908Z,7.10
2022-09-23T01:50:19.069Z,5.75
2022-09-23T01:51:26.578Z,6.15
2022-09-23T01:52:35.760Z,7.13
2022-09-23T01:53:45.070Z,6.43
2022-09-23T01:54:53.198Z,6.00
2022-09-23T01:55:58.728Z,6.90
2022-09-23T01:57:04.731Z,6.95
2022-09-23T01:58:12.318Z,6.68
2022-09-23T01:59:18.508Z,6.70
2022-09-23T02:00:22.862Z,7.00
2022-09-23T02:01:31.021Z,7.10
2022-09-23T02:02:35.902Z,7.25
2022-09-23T02:03:43.986Z,7.30
2022-09-23T02:04:50.393Z,6.53
2022-09-23T02:05:55.936Z,6.63
2022-09-23T02:07:02.492Z,6.47
2022-09-23T02:08:08.791Z,7.03
2022-09-23T02:09:14.040Z,7.38
2022-09-23T02:10:19.573Z,6.97
2022-09-23T02:11:21.018Z,7.13
2022-09-23T02:12:25.451Z,7.18
2022-09-23T02:13:32.241Z,7.25
2022-09-23T02:14:40.101Z,7.30
2022-09-23T02:15:46.313Z,7.10
2022-09-23T02:16:52.027Z,6.40
2022-09-23T02:17:59.284Z,7.15
2022-09-23T02:19:07.131Z,6.97
2022-09-23T02:20:11.661Z,6.82
2022-09-23T02:21:16.678Z,7.10
2022-09-23T02:22:21.695Z,6.50
2022-09-23T02:23:27.939Z,6.93
2022-09-23T02:24:31.602Z,6.60
2022-09-23T02:25:44.894Z,7.25
2022-09-23T02:26:51.839Z,7.28
2022-09-23T02:28:01.297Z,7.50
2022-09-23T02:29:11.512Z,6.93
2022-09-23T02:30:17.093Z,6.75
2022-09-23T02:31:30.821Z,6.40
2022-09-23T02:32:39.993Z,6.80
2022-09-23T02:33:50.511Z,7.10
2022-09-23T02:34:58.566Z,6.82
2022-09-23T02:36:07.119Z,7.10
2022-09-23T02:37:15.980Z,6.38
2022-09-23T02:38:26.421Z,7.35
2022-09-23T02:39:37.201Z,7.28
2022-09-23T02:40:46.871Z,6.35
2022-09-23T02:41:55.467Z,6.35
2022-09-23T02:43:07.744Z,7.28
2022-09-23T02:44:12.584Z,6.72
2022-09-23T02:45:14.276Z,7.28
2022-09-23T02:46:16.791Z,7.00
2022-09-23T02:47:24.361Z,7.10
2022-09-23T02:48:32.249Z,6.65
2022-09-23T02:49:34.578Z,7.25
2022-09-23T02:50:37.644Z,7.65
2022-09-23T02:51:40.371Z,8.15
2022-09-23T02:52:41.822Z,6.63
2022-09-23T02:53:43.373Z,7.68
2022-09-23T02:54:44.947Z,7.00
2022-09-23T02:55:46.366Z,6.72
2022-09-23T02:56:47.823Z,7.38
2022-09-23T02:57:49.266Z,7.22
2022-09-23T02:58:53.907Z,7.07
2022-09-23T02:59:55.489Z,7.30
2022-09-23T03:01:07.587Z,7.38
2022-09-23T03:02:35.850Z,7.00
2022-09-23T03:03:46.719Z,6.93
2022-09-23T03:05:02.984Z,7.07
2022-09-23T03:06:14.916Z,6.25
2022-09-23T03:07:20.821Z,6.22
2022-09-23T03:08:36.888Z,7.20
2022-09-23T03:09:44.542Z,7.15
2022-09-23T03:10:55.934Z,7.15
2022-09-23T03:12:09.519Z,7.47
2022-09-23T03:13:19.267Z,7.03
2022-09-23T03:14:29.445Z,6.72
2022-09-23T03:15:36.173Z,7.40
2022-09-23T03:16:45.085Z,7.03
2022-09-23T03:17:55.524Z,8.15
2022-09-23T03:19:10.244Z,7.30
2022-09-23T03:20:20.405Z,7.28
2022-09-23T03:21:28.241Z,8.13
2022-09-23T03:22:33.835Z,8.30
2022-09-23T03:23:38.736Z,7.82
2022-09-23T03:24:42.593Z,7.85
2022-09-23T03:25:47.032Z,7.88
2022-09-23T03:26:49.738Z,8.30
2022-09-23T03:27:54.770Z,8.07
2022-09-23T03:28:57.001Z,7.85
2022-09-23T03:29:59.330Z,8.52
2022-09-23T03:31:00.938Z,8.30
2022-09-23T03:32:03.212Z,8.38
2022-09-23T03:33:08.436Z,9.02
2022-09-23T03:34:17.941Z,8.73
2022-09-23T03:35:22.234Z,8.13
2022-09-23T03:36:28.618Z,8.45
2022-09-23T03:37:33.261Z,7.65
2022-09-23T03:38:39.604Z,8.30
2022-09-23T03:39:44.275Z,7.82
2022-09-23T03:40:47.834Z,8.25
2022-09-23T03:41:51.660Z,8.45
2022-09-23T03:42:53.921Z,8.23
2022-09-23T03:43:57.429Z,8.00
2022-09-23T03:44:59.425Z,7.75
2022-09-23T03:46:00.888Z,8.82
2022-09-23T03:47:02.416Z,8.90
2022-09-23T03:48:03.963Z,9.48
2022-09-23T03:49:16.170Z,9.50
2022-09-23T03:50:18.072Z,8.13
2022-09-23T03:51:22.530Z,8.70
2022-09-23T03:52:25.376Z,9.02
2022-09-23T03:53:26.825Z,9.48
2022-09-23T03:54:28.478Z,8.98
2022-09-23T03:55:30.103Z,9.70
2022-09-23T03:56:31.528Z,9.43
2022-09-23T03:57:33.031Z,8.65
2022-09-23T03:58:34.407Z,9.63
2022-09-23T03:59:35.830Z,9.25
2022-09-23T04:00:37.309Z,10.13
2022-09-23T04:01:38.752Z,10.73
2022-09-23T04:02:40.897Z,10.15
2022-09-23T04:03:42.299Z,10.60
2022-09-23T04:04:45.452Z,9.80
2022-09-23T04:05:46.852Z,9.88
2022-09-23T04:06:48.315Z,9.55
2022-09-23T04:07:49.710Z,9.75
2022-09-23T04:08:51.103Z,9.88
2022-09-23T04:09:52.925Z,10.02
2022-09-23T04:10:59.517Z,9.75
2022-09-23T04:12:01.297Z,9.90
2022-09-23T04:13:02.712Z,10.00
2022-09-23T04:14:04.644Z,10.07
2022-09-23T04:15:07.158Z,9.82
2022-09-23T04:16:08.606Z,10.02
2022-09-23T04:17:10.392Z,10.13
2022-09-23T04:18:11.863Z,9.98
2022-09-23T04:19:14.274Z,9.60
2022-09-23T04:20:17.077Z,8.68
2022-09-23T04:21:18.784Z,9.35
2022-09-23T04:22:20.476Z,9.18
2022-09-23T04:23:21.874Z,9.80
2022-09-23T04:24:24.033Z,9.40
2022-09-23T04:25:25.503Z,9.02
2022-09-23T04:26:27.101Z,9.48
2022-09-23T04:27:28.529Z,9.43
2022-09-23T04:28:29.972Z,9.82
2022-09-23T04:29:31.410Z,9.10
2022-09-23T04:30:32.848Z,9.48
2022-09-23T04:31:34.752Z,8.65
2022-09-23T04:32:36.234Z,9.88
2022-09-23T04:33:37.655Z,9.45
2022-09-23T04:34:39.083Z,8.95
2022-09-23T04:35:41.924Z,9.80
2022-09-23T04:36:44.162Z,9.43
2022-09-23T04:37:47.720Z,9.35
2022-09-23T04:38:49.896Z,10.13
2022-09-23T04:39:51.347Z,8.77
2022-09-23T04:40:52.857Z,9.68
2022-09-23T04:41:54.366Z,9.63
2022-09-23T04:42:55.806Z,9.75
2022-09-23T04:43:57.429Z,10.27
2022-09-23T04:44:58.881Z,9.55
2022-09-23T04:46:00.993Z,10.02
2022-09-23T04:47:02.494Z,10.35
2022-09-23T04:48:03.990Z,9.73
2022-09-23T04:49:06.189Z,9.38
2022-09-23T04:50:08.462Z,10.43
2022-09-23T04:51:13.612Z,10.13
2022-09-23T04:52:15.047Z,9.82
2022-09-23T04:53:16.470Z,10.07
2022-09-23T04:54:17.957Z,11.18
2022-09-23T04:55:19.864Z,9.98
2022-09-23T04:56:23.407Z,10.02
2022-09-23T04:57:24.852Z,10.10
2022-09-23T04:58:26.263Z,10.48
2022-09-23T04:59:27.722Z,10.50
2022-09-23T05:00:29.230Z,10.70
2022-09-23T05:01:32.662Z,10.45
2022-09-23T05:02:34.298Z,9.73
2022-09-23T05:03:35.770Z,9.43
2022-09-23T05:04:37.278Z,10.38
2022-09-23T05:05:38.693Z,10.30
2022-09-23T05:06:41.598Z,11.02
2022-09-23T05:07:43.010Z,10.18
2022-09-23T05:08:49.940Z,10.10
2022-09-23T05:09:51.486Z,10.27
2022-09-23T05:10:56.743Z,9.98
2022-09-23T05:11:58.280Z,9.95
2022-09-23T05:12:59.739Z,10.82
2022-09-23T05:14:01.171Z,10.45
2022-09-23T05:15:03.005Z,10.60
2022-09-23T05:16:06.402Z,10.52
2022-09-23T05:17:07.923Z,11.48
2022-09-23T05:18:09.382Z,11.15
2022-09-23T05:19:10.996Z,10.68
2022-09-23T05:20:12.415Z,10.95
2022-09-23T05:21:16.038Z,10.95
2022-09-23T05:22:18.822Z,11.63
2022-09-23T05:23:20.256Z,11.68
2022-09-23T05:24:21.716Z,11.25
2022-09-23T05:25:23.128Z,11.30
2022-09-23T05:26:26.666Z,11.57
2022-09-23T05:27:28.421Z,11.57
2022-09-23T05:28:31.300Z,11.27
2022-09-23T05:29:32.939Z,11.63
2022-09-23T05:30:34.355Z,11.68
2022-09-23T05:31:35.857Z,10.85
2022-09-23T05:32:37.340Z,11.35
2022-09-23T05:33:38.751Z,11.45
2022-09-23T05:34:40.289Z,11.63
2022-09-23T05:35:46.623Z,11.38
2022-09-23T05:36:48.072Z,10.93
2022-09-23T05:37:50.875Z,10.65
2022-09-23T05:38:52.585Z,11.32
2022-09-23T05:39:54.016Z,9.88
2022-09-23T05:40:56.523Z,11.25
2022-09-23T05:41:57.966Z,12.00
2022-09-23T05:42:59.419Z,11.52
2022-09-23T05:44:01.482Z,10.55
2022-09-23T05:45:02.933Z,11.02
2022-09-23T05:46:08.179Z,11.65
2022-09-23T05:47:10.071Z,11.25
2022-09-23T05:48:11.525Z,11.15
2022-09-23T05:49:13.035Z,10.40
2022-09-23T05:50:14.750Z,10.85
2022-09-23T05:51:17.977Z,10.07
2022-09-23T05:52:19.414Z,9.82
2022-09-23T05:53:22.210Z,10.10
2022-09-23T05:54:23.604Z,9.65
2022-09-23T05:55:25.084Z,10.82
2022-09-23T05:56:28.253Z,10.00
2022-09-23T05:57:29.751Z,9.85
2022-09-23T05:58:31.180Z,10.57
2022-09-23T05:59:32.646Z,9.52
2022-09-23T06:00:34.041Z,9.13
2022-09-23T06:01:35.962Z,9.30
2022-09-23T06:02:37.550Z,8.98
2022-09-23T06:03:39.637Z,8.88
2022-09-23T06:04:41.044Z,8.98
2022-09-23T06:05:42.504Z,8.90
2022-09-23T06:06:43.970Z,8.05
2022-09-23T06:07:45.360Z,8.18
2022-09-23T06:08:48.132Z,8.45
2022-09-23T06:09:49.551Z,8.60
2022-09-23T06:10:54.337Z,8.85
2022-09-23T06:11:56.085Z,9.30
2022-09-23T06:12:57.501Z,9.82
2022-09-23T06:14:00.385Z,9.23
2022-09-23T06:15:01.856Z,9.95
2022-09-23T06:16:03.424Z,9.52
2022-09-23T06:17:04.900Z,9.25
2022-09-23T06:18:06.835Z,10.07
2022-09-23T06:19:08.349Z,8.65
2022-09-23T06:20:10.253Z,8.77
2022-09-23T06:21:13.602Z,8.60
2022-09-23T06:22:15.027Z,9.43
2022-09-23T06:23:16.440Z,8.55
2022-09-23T06:24:22.309Z,8.38
2022-09-23T06:25:24.512Z,8.77
2022-09-23T06:26:26.366Z,8.75
2022-09-23T06:27:27.771Z,8.52
2022-09-23T06:28:30.703Z,8.07
2022-09-23T06:29:32.120Z,8.43
2022-09-23T06:30:33.510Z,9.32
2022-09-23T06:31:34.986Z,8.45
2022-09-23T06:32:36.473Z,9.05
2022-09-23T06:33:37.912Z,8.82
2022-09-23T06:34:50.293Z,8.25
2022-09-23T06:35:59.788Z,9.30
2022-09-23T06:37:10.315Z,8.27
2022-09-23T06:38:18.415Z,8.65
2022-09-23T06:39:21.145Z,8.50
2022-09-23T06:40:22.754Z,8.43
2022-09-23T06:41:24.347Z,8.80
2022-09-23T06:42:25.751Z,9.52
2022-09-23T06:43:27.188Z,8.20
2022-09-23T06:44:28.624Z,8.07
2022-09-23T06:45:30.007Z,8.45
2022-09-23T06:46:31.515Z,8.40
2022-09-23T06:47:33.190Z,8.20
2022-09-23T06:48:34.919Z,8.23
2022-09-23T06:49:36.315Z,8.30
2022-09-23T06:50:37.753Z,8.75
2022-09-23T06:51:39.265Z,8.80
2022-09-23T06:52:40.711Z,7.93
2022-09-23T06:53:42.145Z,8.10
2022-09-23T06:54:44.858Z,7.82
2022-09-23T06:55:46.339Z,8.50
2022-09-23T06:56:47.777Z,8.57
2022-09-23T06:57:49.165Z,8.30
2022-09-23T06:58:51.405Z,7.88
2022-09-23T06:59:52.802Z,7.97
2022-09-23T07:01:00.088Z,8.18
2022-09-23T07:02:01.725Z,7.68
2022-09-23T07:03:06.537Z,23.63
2022-09-23T07:04:08.549Z,8.57
2022-09-23T07:05:10.378Z,8.15
2022-09-23T07:06:12.127Z,8.65
2022-09-23T07:07:13.555Z,8.45
2022-09-23T07:08:15.013Z,8.75
2022-09-23T07:09:16.696Z,8.68
2022-09-23T07:10:19.519Z,8.52
2022-09-23T07:11:20.962Z,9.02
2022-09-23T07:12:22.390Z,8.95
2022-09-23T07:13:24.433Z,9.05
2022-09-23T07:14:25.874Z,8.32
2022-09-23T07:15:27.418Z,8.70
2022-09-23T07:16:28.894Z,8.45
2022-09-23T07:17:30.376Z,8.98
2022-09-23T07:18:36.735Z,8.60
2022-09-23T07:19:38.582Z,8.57
2022-09-23T07:20:39.993Z,8.15
2022-09-23T07:21:41.400Z,8.70
2022-09-23T07:22:42.811Z,8.88
2022-09-23T07:23:45.924Z,8.68
2022-09-23T07:24:47.342Z,8.55
2022-09-23T07:25:50.083Z,8.35
2022-09-23T07:26:51.511Z,8.63
2022-09-23T07:27:52.918Z,9.23
2022-09-23T07:28:55.282Z,8.90
2022-09-23T07:29:56.773Z,7.82
2022-09-23T07:31:03.721Z,7.95
2022-09-23T07:32:12.719Z,7.95
2022-09-23T07:33:28.715Z,8.25
2022-09-23T07:34:32.736Z,7.45
2022-09-23T07:35:39.361Z,7.85
2022-09-23T07:36:41.133Z,8.35
2022-09-23T07:37:42.745Z,8.45
2022-09-23T07:38:45.760Z,8.25
2022-09-23T07:39:47.370Z,8.45
2022-09-23T07:40:50.223Z,7.10
2022-09-23T07:41:51.769Z,8.02
2022-09-23T07:42:53.431Z,7.53
2022-09-23T07:43:55.433Z,8.07
2022-09-23T07:44:56.895Z,7.97
2022-09-23T07:45:59.480Z,8.77
2022-09-23T07:47:01.007Z,9.98
2022-09-23T07:48:03.174Z,9.70
2022-09-23T07:49:05.201Z,9.13
2022-09-23T07:50:08.196Z,8.50
2022-09-23T07:51:11.954Z,8.40
2022-09-23T07:52:13.386Z,8.35
2022-09-23T07:53:14.824Z,8.93
2022-09-23T07:54:17.102Z,9.00
2022-09-23T07:55:20.964Z,8.77
2022-09-23T07:56:27.421Z,8.75
2022-09-23T07:57:28.853Z,8.57
2022-09-23T07:58:30.327Z,8.65
2022-09-23T07:59:31.732Z,9.05
2022-09-23T08:00:33.242Z,8.07
2022-09-23T08:01:36.615Z,8.63
2022-09-23T08:02:38.092Z,8.50
2022-09-23T08:03:39.781Z,8.38
2022-09-23T08:04:41.199Z,8.30
2022-09-23T08:05:42.729Z,8.75
2022-09-23T08:06:46.629Z,7.82
2022-09-23T08:07:48.067Z,9.27
2022-09-23T08:08:53.186Z,8.80
2022-09-23T08:09:54.964Z,8.43
2022-09-23T08:11:00.730Z,8.55
2022-09-23T08:12:03.971Z,8.93
2022-09-23T08:13:05.621Z,8.88
2022-09-23T08:14:07.211Z,8.52
2022-09-23T08:15:09.333Z,9.50
2022-09-23T08:16:10.774Z,9.30
2022-09-23T08:17:12.803Z,9.48
2022-09-23T08:18:14.201Z,9.18
2022-09-23T08:19:16.567Z,8.65
2022-09-23T08:20:18.139Z,10.32
2022-09-23T08:21:21.450Z,9.52
2022-09-23T08:22:22.974Z,9.70
2022-09-23T08:23:24.850Z,9.07
2022-09-23T08:24:26.420Z,9.55
2022-09-23T08:25:28.037Z,8.70
2022-09-23T08:26:29.646Z,8.75
2022-09-23T08:27:32.562Z,9.18
2022-09-23T08:28:34.024Z,8.65
2022-09-23T08:29:35.424Z,8.57
2022-09-23T08:30:38.983Z,9.75
2022-09-23T08:31:40.800Z,9.25
2022-09-23T08:32:42.266Z,8.38
2022-09-23T08:33:43.680Z,8.82
2022-09-23T08:34:45.085Z,9.38
2022-09-23T08:35:46.515Z,8.70
2022-09-23T08:36:48.506Z,8.93
2022-09-23T08:37:49.935Z,8.30
2022-09-23T08:38:51.368Z,8.38
2022-09-23T08:39:52.799Z,8.75
2022-09-23T08:41:05.530Z,7.78
2022-09-23T08:42:16.114Z,8.02
2022-09-23T08:43:25.030Z,8.68
2022-09-23T08:44:33.648Z,12.27
2022-09-23T08:45:37.590Z,9.63
2022-09-23T08:46:44.837Z,9.70
2022-09-23T08:47:52.239Z,9.27
2022-09-23T08:48:54.934Z,10.43
2022-09-23T08:50:01.690Z,10.57
2022-09-23T08:51:06.203Z,10.30
2022-09-23T08:52:15.861Z,11.02
2022-09-23T08:53:23.479Z,10.23
2022-09-23T08:54:31.473Z,11.85
2022-09-23T08:55:35.575Z,11.45
2022-09-23T08:56:37.989Z,11.13
2022-09-23T08:58:02.276Z,10.50
2022-09-23T08:59:17.527Z,9.98
2022-09-23T09:00:21.034Z,9.23
2022-09-23T09:01:29.849Z,9.70
2022-09-23T09:02:34.871Z,10.63
2022-09-23T09:03:42.752Z,10.98
2022-09-23T09:04:47.164Z,10.05
2022-09-23T09:05:54.199Z,9.57
2022-09-23T09:07:18.306Z,9.38
2022-09-23T09:08:28.059Z,10.38
2022-09-23T09:09:32.834Z,10.50
2022-09-23T09:10:41.179Z,11.00
2022-09-23T09:11:48.768Z,11.05
2022-09-23T09:12:55.806Z,10.20
2022-09-23T09:14:03.522Z,9.60
2022-09-23T09:15:11.636Z,11.02
2022-09-23T09:16:55.636Z,11.23
2022-09-23T09:17:59.635Z,9.75
2022-09-23T09:19:01.678Z,8.90
2022-09-23T09:20:17.556Z,8.43
2022-09-23T09:21:21.345Z,9.27
2022-09-23T09:22:39.073Z,8.63
2022-09-23T09:23:45.830Z,8.48
2022-09-23T09:24:49.108Z,7.65
2022-09-23T09:25:52.508Z,8.10
2022-09-23T09:26:54.018Z,7.38
2022-09-23T09:27:56.986Z,7.10
2022-09-23T09:29:17.270Z,8.55
2022-09-23T09:30:27.780Z,9.85
2022-09-23T09:31:32.643Z,9.05
2022-09-23T09:32:41.649Z,8.68
2022-09-23T09:33:52.064Z,8.40
2022-09-23T09:34:59.092Z,9.75
2022-09-23T09:36:20.636Z,9.63
2022-09-23T09:37:27.705Z,9.23
2022-09-23T09:38:29.248Z,9.80
2022-09-23T09:39:30.920Z,9.15
2022-09-23T09:40:34.093Z,9.13
2022-09-23T09:41:35.575Z,7.80
2022-09-23T09:42:38.760Z,7.90
2022-09-23T09:43:44.027Z,7.10
2022-09-23T09:44:50.441Z,7.53
2022-09-23T09:46:04.057Z,6.82
2022-09-23T09:47:21.729Z,7.13
2022-09-23T09:48:29.101Z,7.28
2022-09-23T09:49:40.376Z,7.90
2022-09-23T09:50:45.404Z,7.97
2022-09-23T09:51:46.821Z,7.57
2022-09-23T09:52:48.878Z,6.70
2022-09-23T09:53:50.728Z,7.28
2022-09-23T09:54:52.953Z,7.07
2022-09-23T09:56:04.591Z,6.88
2022-09-23T09:57:17.164Z,7.15
2022-09-23T09:58:18.686Z,7.10
2022-09-23T09:59:26.058Z,7.28
2022-09-23T10:00:37.917Z,7.20
2022-09-23T10:01:40.739Z,7.70
2022-09-23T10:02:42.635Z,7.50
2022-09-23T10:03:44.659Z,7.40
2022-09-23T10:04:46.154Z,7.18
2022-09-23T10:05:50.005Z,7.43
2022-09-23T10:07:06.197Z,7.50
2022-09-23T10:08:22.634Z,9.50
2022-09-23T10:09:32.311Z,11.57
2022-09-23T10:10:34.017Z,9.73
2022-09-23T10:11:35.989Z,7.47
2022-09-23T10:12:43.679Z,7.53
2022-09-23T10:14:10.606Z,7.63
2022-09-23T10:15:27.296Z,7.60
2022-09-23T10:16:29.949Z,7.43
2022-09-23T10:17:34.274Z,7.38
2022-09-23T10:18:38.198Z,10.23
2022-09-23T10:19:45.247Z,11.43
2022-09-23T10:20:48.197Z,7.25
2022-09-23T10:21:52.528Z,8.23
2022-09-23T10:22:54.036Z,7.38
2022-09-23T10:23:57.815Z,7.28
2022-09-23T10:25:02.461Z,7.45
2022-09-23T10:26:06.752Z,7.65
2022-09-23T10:27:10.368Z,9.52
2022-09-23T10:28:32.605Z,8.65
2022-09-23T10:29:38.254Z,9.30
2022-09-23T10:30:39.746Z,9.27
2022-09-23T10:31:41.231Z,8.02
2022-09-23T10:32:45.026Z,7.85
2022-09-23T10:33:48.934Z,8.73
2022-09-23T10:34:53.017Z,8.73
2022-09-23T10:35:54.438Z,8.70
2022-09-23T10:37:02.404Z,8.95
2022-09-23T10:38:03.912Z,8.60
2022-09-23T10:39:06.369Z,8.88
2022-09-23T10:40:19.846Z,8.73
2022-09-23T10:41:31.542Z,9.30
2022-09-23T10:42:49.313Z,8.38
2022-09-23T10:44:03.538Z,7.88
2022-09-23T10:45:17.270Z,8.13
2022-09-23T10:46:23.535Z,8.70
2022-09-23T10:47:34.127Z,9.40
2022-09-23T10:48:51.082Z,8.40
2022-09-23T10:50:08.802Z,8.02
2022-09-23T10:51:24.078Z,9.32
2022-09-23T10:52:43.976Z,8.48
2022-09-23T10:53:55.143Z,9.07
2022-09-23T10:55:07.277Z,9.05
2022-09-23T10:56:19.901Z,8.35
2022-09-23T10:57:35.872Z,8.77
2022-09-23T10:59:02.123Z,8.60
2022-09-23T11:00:10.726Z,8.65
2022-09-23T11:01:25.427Z,8.02
2022-09-23T11:02:51.568Z,8.23
2022-09-23T11:04:21.372Z,8.25
2022-09-23T11:05:36.881Z,8.15
2022-09-23T11:06:48.048Z,8.55
2022-09-23T11:08:02.608Z,7.75
2022-09-23T11:09:18.422Z,8.10
2022-09-23T11:10:46.250Z,7.65
2022-09-23T11:12:01.070Z,8.27
2022-09-23T11:13:09.908Z,7.20
2022-09-23T11:14:26.293Z,8.65
2022-09-23T11:15:42.326Z,7.35
2022-09-23T11:17:02.760Z,7.07
2022-09-23T11:18:20.887Z,6.85
2022-09-23T11:19:45.712Z,6.95
2022-09-23T11:20:56.313Z,6.93
2022-09-23T11:22:15.381Z,8.10
2022-09-23T11:23:35.061Z,7.13
2022-09-23T11:24:54.021Z,7.07
2022-09-23T11:26:05.561Z,7.18
2022-09-23T11:27:17.523Z,6.85
2022-09-23T11:28:35.666Z,7.00
2022-09-23T11:29:55.332Z,7.50
2022-09-23T11:31:02.712Z,8.10
2022-09-23T11:32:24.920Z,7.85
2022-09-23T11:33:44.666Z,7.57
2022-09-23T11:35:00.535Z,6.80
2022-09-23T11:36:07.398Z,6.90
2022-09-23T11:37:14.277Z,6.97
2022-09-23T11:38:19.840Z,6.93
2022-09-23T11:39:25.352Z,7.05
2022-09-23T11:40:31.361Z,6.63
2022-09-23T11:41:37.096Z,5.97
2022-09-23T11:42:46.100Z,9.13
2022-09-23T11:43:51.562Z,9.00
2022-09-23T11:44:58.293Z,6.22
2022-09-23T11:46:06.662Z,6.25
2022-09-23T11:47:14.192Z,6.63
2022-09-23T11:48:20.154Z,5.97
2022-09-23T11:49:29.696Z,5.90
2022-09-23T11:50:38.077Z,5.63
2022-09-23T11:51:48.597Z,5.30
2022-09-23T11:52:56.485Z,5.38
2022-09-23T11:54:02.106Z,5.47
2022-09-23T11:55:19.420Z,5.70
2022-09-23T11:56:34.601Z,6.45
2022-09-23T11:57:48.456Z,5.90
2022-09-23T11:59:00.730Z,6.20
2022-09-23T12:00:07.113Z,6.07
2022-09-23T12:01:13.187Z,5.32
2022-09-23T12:02:25.664Z,6.00
2022-09-23T12:03:44.876Z,6.75
2022-09-23T12:04:57.623Z,6.07
2022-09-23T12:06:05.258Z,6.10
2022-09-23T12:07:14.735Z,7.45
2022-09-23T12:08:24.185Z,7.20
2022-09-23T12:09:56.704Z,6.35
2022-09-23T12:11:01.067Z,5.80
2022-09-23T12:12:12.463Z,5.78
2022-09-23T12:14:27.287Z,7.00
2022-09-23T12:15:40.380Z,6.35
2022-09-23T12:17:23.165Z,6.45
2022-09-23T12:18:36.595Z,6.22
2022-09-23T12:19:57.855Z,5.90
2022-09-23T12:21:49.651Z,5.65
2022-09-23T12:23:04.249Z,7.53
2022-09-23T12:24:42.089Z,7.13
2022-09-23T12:25:48.256Z,6.80
2022-09-23T12:26:52.873Z,7.85
2022-09-23T12:28:00.338Z,7.28
2022-09-23T12:29:04.677Z,7.03
2022-09-23T12:30:14.209Z,6.82
2022-09-23T12:31:18.065Z,6.93
2022-09-23T12:32:19.796Z,6.35
2022-09-23T12:33:23.420Z,6.10
2022-09-23T12:34:30.081Z,6.78
2022-09-23T12:35:38.036Z,6.78
2022-09-23T12:36:40.833Z,6.60
2022-09-23T12:37:42.408Z,5.82
2022-09-23T12:38:48.729Z,6.30
2022-09-23T12:39:50.231Z,5.90
2022-09-23T12:40:53.567Z,6.50
2022-09-23T12:41:58.820Z,6.72
2022-09-23T12:43:01.222Z,5.85
2022-09-23T12:44:15.067Z,5.80
2022-09-23T12:45:35.371Z,6.53
2022-09-23T12:46:36.964Z,5.80
2022-09-23T12:47:39.582Z,5.78
2022-09-23T12:48:46.623Z,5.32
2022-09-23T12:49:48.573Z,5.28
2022-09-23T12:50:52.992Z,6.18
2022-09-23T12:52:23.104Z,5.18
2022-09-23T12:53:55.759Z,5.45
2022-09-23T12:54:58.719Z,6.30
2022-09-23T12:56:01.194Z,6.22
2022-09-23T12:57:13.875Z,5.53
2022-09-23T12:58:56.613Z,5.63
2022-09-23T13:00:13.251Z,5.68
2022-09-23T13:01:19.045Z,5.72
2022-09-23T13:02:27.370Z,5.65
2022-09-23T13:03:28.909Z,6.15
2022-09-23T13:04:34.248Z,6.18
2022-09-23T13:05:43.631Z,7.32
2022-09-23T13:06:56.115Z,5.85
2022-09-23T13:08:04.952Z,5.90
2022-09-23T13:09:12.620Z,6.63
2022-09-23T13:10:22.585Z,5.70
2022-09-23T13:11:28.107Z,6.90
2022-09-23T13:12:34.755Z,6.25
2022-09-23T13:13:39.907Z,8.65
2022-09-23T13:14:45.422Z,5.82
2022-09-23T13:15:47.539Z,5.95
2022-09-23T13:16:49.744Z,6.47
2022-09-23T13:17:51.274Z,5.57
2022-09-23T13:18:53.942Z,5.18
2022-09-23T13:20:01.312Z,6.15
2022-09-23T13:21:16.949Z,6.20
2022-09-23T13:22:40.433Z,6.22
2022-09-23T13:24:34.284Z,6.93
2022-09-23T13:25:41.985Z,6.15
2022-09-23T13:26:45.466Z,6.75
2022-09-23T13:27:49.457Z,7.63
2022-09-23T13:28:56.840Z,6.05
2022-09-23T13:30:02.685Z,5.90
2022-09-23T13:31:06.709Z,5.93
2022-09-23T13:32:12.411Z,6.05
2022-09-23T13:33:18.964Z,6.47
2022-09-23T13:34:22.933Z,6.03
2022-09-23T13:35:29.605Z,6.13
2022-09-23T13:36:43.477Z,5.97
2022-09-23T13:37:46.722Z,5.22
2022-09-23T13:38:48.183Z,5.50
2022-09-23T13:39:51.157Z,5.85
2022-09-23T13:40:54.665Z,6.00
2022-09-23T13:42:01.506Z,6.47
2022-09-23T13:43:06.162Z,6.03
2022-09-23T13:44:16.090Z,6.47
2022-09-23T13:45:20.938Z,8.38
2022-09-23T13:46:25.154Z,6.07
2022-09-23T13:47:29.403Z,5.45
2022-09-23T13:48:31.961Z,5.88
2022-09-23T13:49:35.118Z,6.10
2022-09-23T13:50:39.291Z,5.68
2022-09-23T13:51:44.576Z,5.70
2022-09-23T13:52:50.929Z,6.18
2022-09-23T13:53:53.515Z,6.85
2022-09-23T13:54:56.539Z,6.43
2022-09-23T13:56:03.738Z,6.28
2022-09-23T13:57:05.168Z,5.50
2022-09-23T13:58:15.064Z,6.10
2022-09-23T13:59:24.956Z,5.35
2022-09-23T14:00:26.826Z,5.50
2022-09-23T14:01:31.085Z,5.93
2022-09-23T14:02:32.639Z,5.63
2022-09-23T14:03:37.375Z,5.43
2022-09-23T14:04:38.973Z,5.55
2022-09-23T14:05:40.499Z,5.45
2022-09-23T14:06:41.933Z,5.10
2022-09-23T14:07:44.664Z,6.85
2022-09-23T14:08:47.901Z,4.90
2022-09-23T14:09:52.185Z,7.20
2022-09-23T14:10:55.857Z,5.50
2022-09-23T14:12:00.072Z,6.28
2022-09-23T14:13:01.815Z,4.78
2022-09-23T14:14:04.371Z,5.10
2022-09-23T14:15:13.049Z,4.70
2022-09-23T14:16:15.989Z,5.00
2022-09-23T14:17:20.279Z,5.18
2022-09-23T14:18:28.805Z,5.38
2022-09-23T14:19:31.918Z,4.90
2022-09-23T14:20:45.476Z,4.78
2022-09-23T14:21:49.137Z,5.18
2022-09-23T14:23:04.387Z,6.10
2022-09-23T14:24:17.086Z,5.43
2022-09-23T14:25:18.885Z,5.07
2022-09-23T14:26:23.670Z,5.57
2022-09-23T14:27:28.182Z,5.15
2022-09-23T14:28:29.866Z,5.50
2022-09-23T14:29:33.712Z,5.05
2022-09-23T14:30:36.748Z,5.50
2022-09-23T14:31:38.368Z,5.78
2022-09-23T14:32:40.237Z,5.65
2022-09-23T14:33:42.891Z,6.18
2022-09-23T14:34:46.346Z,5.68
2022-09-23T14:35:51.887Z,5.60
2022-09-23T14:36:53.426Z,5.22